Time;durP1;ratioP1;P1;durP2;ratioP2;P2;SDS_P1;SDS_P2;PMS_P1;PMS_P2;Temp;Humidity;BMP_temperature;BMP_pressure;BME280_temperature;BME280_humidity;BME280_pressure;Samples;Min_cycle;Max_cycle;Signal;HPM_P1;HPM_P2
2021/01/12 00:01:43;;;;;;;48.90;32.03;;;5.20;99.90;;;;;;5036285;28;20177;-80
2021/01/12 00:04:08;;;;;;;38.70;24.17;;;5.20;99.90;;;;;;5036073;28;20178;-80
2021/01/12 00:06:34;;;;;;;43.67;29.63;;;5.20;99.90;;;;;;5036667;28;20236;-80
2021/01/12 00:09:00;;;;;;;53.93;32.77;;;5.20;99.90;;;;;;5036226;28;20189;-80
2021/01/12 00:11:26;;;;;;;52.27;34.70;;;5.10;99.90;;;;;;5036033;28;20553;-80
2021/01/12 00:13:51;;;;;;;49.67;32.70;;;5.10;99.90;;;;;;5035648;28;20585;-80
2021/01/12 00:16:20;;;;;;;49.43;32.67;;;5.20;99.90;;;;;;5035620;28;20217;-80
2021/01/12 00:18:47;;;;;;;44.67;31.60;;;5.20;99.90;;;;;;5052558;28;20228;-79
2021/01/12 00:21:13;;;;;;;35.53;22.67;;;5.20;99.90;;;;;;5052486;28;20177;-80
2021/01/12 00:23:38;;;;;;;39.00;25.17;;;5.20;99.90;;;;;;5035675;28;20787;-80
2021/01/12 00:26:10;;;;;;;39.60;26.93;;;5.30;99.90;;;;;;5035860;28;20182;-80
2021/01/12 00:28:36;;;;;;;45.57;32.23;;;5.30;99.90;;;;;;5019422;28;20174;-80
2021/01/12 00:31:05;;;;;;;42.33;25.23;;;5.30;99.90;;;;;;5035730;28;20244;-80
2021/01/12 00:33:31;;;;;;;47.17;31.43;;;5.30;99.90;;;;;;5035525;28;20247;-80
2021/01/12 00:36:02;;;;;;;47.53;32.87;;;5.30;99.90;;;;;;5035454;28;20212;-79
2021/01/12 00:38:28;;;;;;;48.10;32.00;;;5.20;99.90;;;;;;5035612;28;20162;-80
2021/01/12 00:40:53;;;;;;;48.77;31.97;;;5.20;99.90;;;;;;5035598;28;20181;-79
2021/01/12 00:43:19;;;;;;;49.27;32.37;;;5.20;99.90;;;;;;5052183;28;20190;-79
2021/01/12 00:45:44;;;;;;;45.07;30.07;;;5.20;99.90;;;;;;5035763;28;20210;-79
2021/01/12 00:48:10;;;;;;;40.03;28.13;;;5.30;99.90;;;;;;5035492;28;20204;-79
2021/01/12 00:50:35;;;;;;;45.27;31.57;;;5.30;99.90;;;;;;5035451;28;20185;-80
2021/01/12 00:53:01;;;;;;;39.60;27.60;;;5.30;99.90;;;;;;5035359;28;20198;-79
2021/01/12 00:55:26;;;;;;;43.77;31.13;;;5.30;99.90;;;;;;5035403;28;20209;-79
2021/01/12 00:57:52;;;;;;;46.50;31.37;;;5.30;99.90;;;;;;5035282;28;20185;-79
2021/01/12 01:00:18;;;;;;;38.97;27.47;;;5.30;99.90;;;;;;5035355;28;20178;-79
2021/01/12 01:02:44;;;;;;;44.40;28.87;;;5.30;99.90;;;;;;5035151;28;20201;-79
2021/01/12 01:05:10;;;;;;;44.60;30.53;;;5.30;99.90;;;;;;5035358;28;20235;-80
2021/01/12 01:07:35;;;;;;;39.90;28.30;;;5.30;99.90;;;;;;5051624;28;20225;-80
2021/01/12 01:10:01;;;;;;;33.57;24.70;;;5.30;99.90;;;;;;5035421;28;20231;-79
2021/01/12 01:12:26;;;;;;;45.70;30.13;;;5.30;99.90;;;;;;5035253;28;20198;-79
2021/01/12 01:14:52;;;;;;;44.93;31.77;;;5.40;99.90;;;;;;5051760;28;20222;-79
2021/01/12 01:17:17;;;;;;;41.77;29.57;;;5.30;99.90;;;;;;5035056;28;20177;-79
2021/01/12 01:19:43;;;;;;;43.00;28.30;;;5.30;99.90;;;;;;5035217;28;20268;-80
2021/01/12 01:22:09;;;;;;;42.27;29.13;;;5.40;99.90;;;;;;5063550;22;20539;-80
2021/01/12 01:24:34;;;;;;;43.90;30.30;;;5.50;99.90;;;;;;4999231;28;20650;-79
2021/01/12 01:27:00;;;;;;;44.40;30.13;;;5.40;99.90;;;;;;5015483;28;20673;-80
2021/01/12 01:29:26;;;;;;;44.97;30.50;;;5.40;99.90;;;;;;5031742;28;20596;-79
2021/01/12 01:31:52;;;;;;;38.40;29.37;;;5.40;99.90;;;;;;4998994;28;20213;-80
2021/01/12 01:34:18;;;;;;;46.47;30.67;;;5.50;99.90;;;;;;5014992;28;20266;-80
2021/01/12 01:36:43;;;;;;;43.83;30.80;;;5.50;99.90;;;;;;4998662;28;20198;-79
2021/01/12 01:39:09;;;;;;;45.60;32.30;;;5.40;99.90;;;;;;5015433;28;20174;-80
2021/01/12 01:41:35;;;;;;;40.57;26.17;;;5.40;99.90;;;;;;5014440;28;20229;-80
2021/01/12 01:44:02;;;;;;;43.57;29.70;;;5.50;99.90;;;;;;4997907;28;20178;-81
2021/01/12 01:46:27;;;;;;;37.47;26.50;;;5.50;99.90;;;;;;4997884;28;20171;-80
2021/01/12 01:48:53;;;;;;;44.00;29.97;;;5.50;99.90;;;;;;4997912;28;20229;-80
2021/01/12 01:51:18;;;;;;;39.10;25.00;;;5.50;99.90;;;;;;4997710;28;20239;-80
2021/01/12 01:53:44;;;;;;;39.60;29.10;;;5.60;99.90;;;;;;4997914;28;20566;-80
2021/01/12 01:56:09;;;;;;;42.97;28.83;;;5.60;99.90;;;;;;4997492;28;20212;-80
2021/01/12 01:58:41;;;;;;;38.23;26.03;;;5.60;99.90;;;;;;5030797;28;20175;-80
2021/01/12 02:01:07;;;;;;;37.03;27.27;;;5.60;99.90;;;;;;5014082;28;20704;-80
2021/01/12 02:03:42;;;;;;;40.80;28.73;;;5.60;99.90;;;;;;5014262;28;20232;-80
2021/01/12 02:06:29;;;;;;;38.33;26.53;;;5.60;99.90;;;;;;4998412;28;20281;-80
2021/01/12 02:09:14;;;;;;;32.67;24.80;;;5.60;99.90;;;;;;5030437;28;20257;-80
2021/01/12 02:11:40;;;;;;;38.03;24.43;;;5.70;99.90;;;;;;4997814;28;20181;-80
2021/01/12 02:14:09;;;;;;;32.20;21.67;;;5.70;99.90;;;;;;4997500;28;20179;-80
2021/01/12 02:16:35;;;;;;;26.17;17.93;;;5.70;99.90;;;;;;5014253;28;20217;-80
2021/01/12 02:19:00;;;;;;;29.40;22.10;;;5.70;99.90;;;;;;4999334;28;20202;-80
2021/01/12 02:21:27;;;;;;;33.67;23.10;;;5.70;99.90;;;;;;5001040;28;20179;-80
2021/01/12 02:23:54;;;;;;;33.50;24.00;;;5.70;99.90;;;;;;5000919;28;20265;-80
2021/01/12 02:26:20;;;;;;;31.33;21.60;;;5.80;99.90;;;;;;5001127;28;20208;-80
2021/01/12 02:28:46;;;;;;;27.87;21.13;;;5.80;99.90;;;;;;5001302;28;20194;-80
2021/01/12 02:31:11;;;;;;;30.03;21.80;;;5.90;99.90;;;;;;5001051;28;20187;-80
2021/01/12 02:33:38;;;;;;;31.17;22.70;;;5.80;99.90;;;;;;5001170;28;20206;-80
2021/01/12 02:36:04;;;;;;;28.20;22.43;;;5.80;99.90;;;;;;5017316;28;20217;-80
2021/01/12 02:38:29;;;;;;;26.40;19.33;;;5.80;99.90;;;;;;5017282;28;20182;-80
2021/01/12 02:40:55;;;;;;;23.20;18.03;;;5.80;99.90;;;;;;5017104;28;20175;-80
2021/01/12 02:43:20;;;;;;;25.87;20.50;;;5.90;99.90;;;;;;5000936;28;20280;-80
2021/01/12 02:45:46;;;;;;;24.17;14.77;;;5.90;99.90;;;;;;5000825;28;20650;-79
2021/01/12 02:48:11;;;;;;;25.73;19.93;;;5.90;99.90;;;;;;5017214;28;20233;-80
2021/01/12 02:50:37;;;;;;;25.30;20.90;;;5.90;99.90;;;;;;5000881;28;20681;-80
2021/01/12 02:53:02;;;;;;;22.13;19.03;;;5.90;99.90;;;;;;5017442;28;20195;-80
2021/01/12 02:55:28;;;;;;;24.63;19.13;;;5.90;99.90;;;;;;5000823;28;20704;-80
2021/01/12 02:57:54;;;;;;;25.27;18.53;;;5.90;99.90;;;;;;5000985;28;20242;-80
2021/01/12 03:00:20;;;;;;;26.80;19.10;;;5.90;99.90;;;;;;5000549;28;20178;-80
2021/01/12 03:02:45;;;;;;;24.60;17.23;;;5.90;99.90;;;;;;5000456;28;20198;-80
2021/01/12 03:05:11;;;;;;;18.90;10.90;;;5.90;99.90;;;;;;5000680;28;20188;-80
2021/01/12 03:07:36;;;;;;;21.10;17.27;;;5.90;99.90;;;;;;5000551;28;20233;-80
2021/01/12 03:10:03;;;;;;;20.77;15.90;;;5.90;99.90;;;;;;5000949;28;20179;-80
2021/01/12 03:12:28;;;;;;;19.77;15.00;;;5.90;99.90;;;;;;5000515;28;20199;-80
2021/01/12 03:14:54;;;;;;;20.57;15.77;;;5.90;99.90;;;;;;5017001;28;20222;-80
2021/01/12 03:17:20;;;;;;;20.77;16.33;;;5.90;99.90;;;;;;5000433;28;20177;-80
2021/01/12 03:19:45;;;;;;;17.60;14.20;;;5.90;99.90;;;;;;5000650;28;20181;-80
2021/01/12 03:22:11;;;;;;;18.83;15.17;;;5.90;99.90;;;;;;5000004;28;20202;-80
2021/01/12 03:24:37;;;;;;;15.97;12.63;;;5.90;99.90;;;;;;5000388;28;20181;-80
2021/01/12 03:27:03;;;;;;;16.60;13.23;;;6.00;99.90;;;;;;5016288;28;20171;-80
2021/01/12 03:29:29;;;;;;;17.23;14.10;;;6.00;99.90;;;;;;5016335;28;20638;-80
2021/01/12 03:31:54;;;;;;;13.73;10.83;;;6.00;99.90;;;;;;4999902;28;20297;-81
2021/01/12 03:34:20;;;;;;;18.57;14.90;;;6.00;99.90;;;;;;4999921;28;20629;-79
2021/01/12 03:36:45;;;;;;;17.33;13.80;;;6.00;99.90;;;;;;4999994;28;20545;-80
2021/01/12 03:39:11;;;;;;;16.00;13.67;;;6.00;99.90;;;;;;5017324;28;20174;-79
2021/01/12 03:41:36;;;;;;;16.77;14.30;;;6.00;99.90;;;;;;5000463;28;20172;-80
2021/01/12 03:44:02;;;;;;;14.63;12.87;;;6.00;99.90;;;;;;5001025;28;20167;-80
2021/01/12 03:46:28;;;;;;;14.93;13.20;;;6.00;99.90;;;;;;5000880;28;20243;-80
2021/01/12 03:48:53;;;;;;;17.20;13.90;;;6.00;99.90;;;;;;5017564;28;20174;-80
2021/01/12 03:51:24;;;;;;;15.17;12.97;;;6.00;99.90;;;;;;5017208;28;20550;-80
2021/01/12 03:53:50;;;;;;;16.40;12.37;;;6.00;99.90;;;;;;5016942;28;20201;-80
2021/01/12 03:56:16;;;;;;;16.33;13.10;;;6.00;99.90;;;;;;5000572;28;20206;-80
2021/01/12 03:58:41;;;;;;;18.13;13.10;;;6.00;99.90;;;;;;5000589;28;20186;-80
2021/01/12 04:01:07;;;;;;;15.67;12.87;;;6.00;99.90;;;;;;5000417;28;20178;-80
2021/01/12 04:03:33;;;;;;;15.03;12.80;;;6.00;99.90;;;;;;5000496;28;20195;-80
2021/01/12 04:06:02;;;;;;;11.87;9.07;;;6.00;99.90;;;;;;5000447;28;20193;-80
2021/01/12 04:08:28;;;;;;;10.97;9.83;;;6.00;99.90;;;;;;5000359;28;20179;-80
2021/01/12 04:10:54;;;;;;;14.53;11.83;;;6.00;99.90;;;;;;5016916;28;20177;-80
2021/01/12 04:13:19;;;;;;;14.60;12.20;;;6.00;99.90;;;;;;5000351;28;20198;-80
2021/01/12 04:15:45;;;;;;;11.40;10.20;;;6.00;99.90;;;;;;5016857;28;20190;-80
2021/01/12 04:18:11;;;;;;;12.57;11.10;;;6.00;99.90;;;;;;5000678;28;20542;-80
2021/01/12 04:20:36;;;;;;;13.40;11.50;;;6.00;99.90;;;;;;5000305;28;20171;-80
2021/01/12 04:23:03;;;;;;;14.43;11.47;;;6.10;99.90;;;;;;5033137;23;20257;-81
2021/01/12 04:25:28;;;;;;;13.17;11.03;;;6.10;99.90;;;;;;5002100;28;20219;-81
2021/01/12 04:27:54;;;;;;;14.13;11.67;;;6.00;99.90;;;;;;5003845;28;20179;-81
2021/01/12 04:30:20;;;;;;;12.73;10.97;;;6.00;99.90;;;;;;5020189;28;20548;-81
2021/01/12 04:32:46;;;;;;;12.20;10.90;;;6.10;99.90;;;;;;5020380;28;20238;-81
2021/01/12 04:35:12;;;;;;;14.43;11.20;;;6.10;99.90;;;;;;5021218;28;20824;-81
2021/01/12 04:37:38;;;;;;;13.07;10.93;;;6.10;99.90;;;;;;5005193;28;20189;-81
2021/01/12 04:40:22;;;;;;;12.83;11.10;;;6.10;99.90;;;;;;5008477;28;20262;-82
2021/01/12 04:42:58;;;;;;;11.53;9.73;;;6.10;99.90;;;;;;5025580;28;20215;-83
2021/01/12 04:45:35;;;;;;;11.53;10.23;;;6.10;99.90;;;;;;5004473;28;20293;-82
2021/01/12 04:48:15;;;;;;;11.97;10.20;;;6.20;99.90;;;;;;5004900;28;20254;-83
2021/01/12 04:51:00;;;;;;;11.47;10.00;;;6.10;99.90;;;;;;5023044;28;20179;-83
2021/01/12 04:54:08;;;;;;;10.17;8.63;;;6.20;99.90;;;;;;5023653;28;20211;-83
2021/01/12 04:57:04;;;;;;;12.10;9.67;;;6.20;99.90;;;;;;5007313;28;20180;-83
2021/01/12 05:00:14;;;;;;;10.87;9.33;;;6.20;99.90;;;;;;4982519;28;20199;-83
2021/01/12 05:03:11;;;;;;;10.37;9.07;;;6.20;99.90;;;;;;5000484;28;20215;-83
2021/01/12 05:05:53;;;;;;;10.20;7.87;;;6.20;99.90;;;;;;4994446;28;20674;-83
2021/01/12 05:08:56;;;;;;;11.37;8.83;;;6.30;99.90;;;;;;5017743;28;20673;-83
2021/01/12 05:12:21;;;;;;;9.50;8.40;;;6.30;99.90;;;;;;5021894;28;20237;-82
2021/01/12 05:15:13;;;;;;;9.57;8.47;;;6.30;99.90;;;;;;5024119;28;20218;-82
2021/01/12 05:17:57;;;;;;;9.20;7.80;;;6.30;99.90;;;;;;5006064;28;20604;-83
2021/01/12 05:20:53;;;;;;;9.60;6.90;;;6.40;99.90;;;;;;5005151;28;20621;-82
2021/01/12 05:26:00;;;;;;;8.07;7.07;;;6.40;99.90;;;;;;4906896;26;20812;-82
2021/01/12 05:28:55;;;;;;;11.63;8.30;;;6.40;99.90;;;;;;4994122;28;20175;-82
2021/01/12 05:32:01;;;;;;;8.43;6.97;;;6.40;99.90;;;;;;5027923;28;20188;-83
2021/01/12 05:35:04;;;;;;;8.40;6.67;;;6.50;99.90;;;;;;5029782;28;20183;-81
2021/01/12 05:37:57;;;;;;;7.10;6.13;;;6.40;99.90;;;;;;5031830;28;20179;-83
2021/01/12 05:40:44;;;;;;;7.03;5.90;;;6.50;99.90;;;;;;5023071;28;20196;-82
2021/01/12 05:43:47;;;;;;;5.97;5.37;;;6.50;99.90;;;;;;5024889;28;20207;-82
2021/01/12 05:46:27;;;;;;;7.20;5.97;;;6.50;99.90;;;;;;5031728;28;20191;-83
2021/01/12 05:49:24;;;;;;;6.73;5.67;;;6.50;99.90;;;;;;5029487;28;20202;-81
2021/01/12 05:51:51;;;;;;;6.30;5.00;;;6.50;99.90;;;;;;5026748;22;20708;-79
2021/01/12 05:54:26;;;;;;;6.57;5.80;;;6.60;99.90;;;;;;4996845;28;20165;-80
2021/01/12 05:56:57;;;;;;;6.07;5.47;;;6.50;99.90;;;;;;5014943;28;20188;-80
2021/01/12 05:59:24;;;;;;;6.90;5.90;;;6.60;99.90;;;;;;4998997;28;20172;-78
2021/01/12 06:01:51;;;;;;;6.43;5.37;;;6.60;99.90;;;;;;4982722;28;20270;-80
2021/01/12 06:04:17;;;;;;;8.07;5.40;;;6.60;99.90;;;;;;4999109;28;20195;-81
2021/01/12 06:06:44;;;;;;;5.97;5.27;;;6.60;99.90;;;;;;4999082;28;20655;-80
2021/01/12 06:09:11;;;;;;;6.07;5.30;;;6.60;99.90;;;;;;4982679;28;20204;-80
2021/01/12 06:11:37;;;;;;;6.40;4.77;;;6.60;99.90;;;;;;4998301;28;20188;-79
2021/01/12 06:14:11;;;;;;;6.63;5.23;;;6.60;99.90;;;;;;4982174;28;20183;-79
2021/01/12 06:16:37;;;;;;;6.90;5.23;;;6.60;99.90;;;;;;4982295;28;20207;-80
2021/01/12 06:19:14;;;;;;;6.80;4.90;;;6.60;99.90;;;;;;4982346;28;20263;-79
2021/01/12 06:22:00;;;;;;;6.97;4.80;;;6.60;99.90;;;;;;4983536;28;20665;-79
2021/01/12 06:24:40;;;;;;;5.83;5.00;;;6.60;99.90;;;;;;5014642;28;20222;-80
2021/01/12 06:27:10;;;;;;;6.43;4.63;;;6.60;99.90;;;;;;5014652;28;20262;-79
2021/01/12 06:29:35;;;;;;;7.23;5.67;;;6.60;99.90;;;;;;5014768;28;20267;-79
2021/01/12 06:32:01;;;;;;;7.40;5.57;;;6.70;99.90;;;;;;4997936;28;20286;-79
2021/01/12 06:34:26;;;;;;;7.17;6.20;;;6.60;99.90;;;;;;4998378;28;20211;-79
2021/01/12 06:36:56;;;;;;;7.63;5.93;;;6.70;99.90;;;;;;5014109;28;20179;-79
2021/01/12 06:39:28;;;;;;;6.50;5.60;;;6.70;99.90;;;;;;5014379;28;20703;-78
2021/01/12 06:41:54;;;;;;;5.60;4.83;;;6.60;99.90;;;;;;4997404;28;20164;-78
2021/01/12 06:44:24;;;;;;;4.97;4.30;;;6.70;99.90;;;;;;5030333;28;20186;-79
2021/01/12 06:46:51;;;;;;;6.03;5.03;;;6.70;99.90;;;;;;4996328;28;20179;-78
2021/01/12 06:49:18;;;;;;;4.70;4.20;;;6.60;99.90;;;;;;4997864;28;20184;-79
2021/01/12 06:51:46;;;;;;;4.93;4.13;;;6.70;99.90;;;;;;4997835;28;20195;-79
2021/01/12 06:54:13;;;;;;;3.80;3.07;;;6.70;99.90;;;;;;4994531;28;20187;-79
2021/01/12 06:56:39;;;;;;;3.40;2.90;;;6.70;99.90;;;;;;4978485;28;20232;-79
2021/01/12 06:59:16;;;;;;;3.50;3.10;;;6.70;99.90;;;;;;4978666;28;20223;-81
2021/01/12 07:01:47;;;;;;;3.27;2.70;;;6.70;99.90;;;;;;4977649;28;20275;-80
2021/01/12 07:04:19;;;;;;;3.07;2.77;;;6.70;99.90;;;;;;4982334;28;20172;-80
2021/01/12 07:06:45;;;;;;;2.60;2.27;;;6.70;99.90;;;;;;4996929;28;20557;-80
2021/01/12 07:09:10;;;;;;;3.40;2.93;;;6.80;99.90;;;;;;4996816;28;20171;-79
2021/01/12 07:11:36;;;;;;;3.70;2.90;;;6.70;99.90;;;;;;4994702;28;20176;-81
2021/01/12 07:14:01;;;;;;;2.87;2.60;;;6.70;99.90;;;;;;4994389;28;20187;-81
2021/01/12 07:16:27;;;;;;;4.07;2.70;;;6.60;99.90;;;;;;5001852;28;20215;-81
2021/01/12 07:18:59;;;;;;;3.93;2.50;;;6.70;99.90;;;;;;4999121;28;20187;-81
2021/01/12 07:21:31;;;;;;;3.80;2.77;;;6.70;99.90;;;;;;5002137;28;20707;-78
2021/01/12 07:24:01;;;;;;;2.80;2.33;;;6.70;99.90;;;;;;4996719;28;20199;-79
2021/01/12 07:26:30;;;;;;;3.10;2.40;;;6.70;99.90;;;;;;5013167;28;20202;-79
2021/01/12 07:29:05;;;;;;;2.90;2.50;;;6.70;99.90;;;;;;4981560;28;20187;-79
2021/01/12 07:31:30;;;;;;;2.80;2.50;;;6.70;99.90;;;;;;4979090;28;20203;-78
2021/01/12 07:33:56;;;;;;;2.70;2.17;;;6.70;99.90;;;;;;4962639;28;20203;-78
2021/01/12 07:36:22;;;;;;;2.73;2.40;;;6.70;99.90;;;;;;4978567;28;20250;-79
2021/01/12 07:38:48;;;;;;;2.83;2.53;;;6.70;99.90;;;;;;4978808;28;20181;-79
2021/01/12 07:41:14;;;;;;;4.03;2.30;;;6.70;99.90;;;;;;4978385;28;20227;-78
2021/01/12 07:46:24;;;;;;;3.60;2.20;;;6.70;99.90;;;;;;4053674;26;20311;-81
2021/01/12 07:48:52;;;;;;;4.60;2.50;;;6.70;99.90;;;;;;4987501;28;20180;-81
2021/01/12 07:51:28;;;;;;;2.97;2.30;;;6.60;99.90;;;;;;4988066;28;20185;-81
2021/01/12 07:53:55;;;;;;;5.27;2.30;;;6.70;99.90;;;;;;4984879;28;20179;-81
2021/01/12 07:56:23;;;;;;;3.03;2.47;;;6.70;99.90;;;;;;4988014;28;20204;-82
2021/01/12 07:58:52;;;;;;;2.90;2.33;;;6.70;99.90;;;;;;4995691;28;20184;-81
2021/01/12 08:01:29;;;;;;;3.23;2.50;;;6.60;99.90;;;;;;4983994;28;20196;-82
2021/01/12 08:03:57;;;;;;;3.47;2.57;;;6.60;99.90;;;;;;5014399;28;20187;-82
2021/01/12 08:06:28;;;;;;;4.90;2.57;;;6.70;99.90;;;;;;5005501;28;20177;-82
2021/01/12 08:08:58;;;;;;;3.43;2.73;;;6.70;99.90;;;;;;5000885;28;20157;-81
2021/01/12 08:11:26;;;;;;;3.27;2.70;;;6.70;99.90;;;;;;5003901;28;20238;-82
2021/01/12 08:14:07;;;;;;;3.70;2.77;;;6.80;99.90;;;;;;4991441;28;20208;-81
2021/01/12 08:16:37;;;;;;;3.13;2.73;;;6.70;99.90;;;;;;4971550;28;20202;-81
2021/01/12 08:19:05;;;;;;;3.63;2.80;;;6.70;99.90;;;;;;4967368;28;20187;-81
2021/01/12 08:21:46;;;;;;;5.10;3.17;;;6.60;99.90;;;;;;4984618;28;20192;-81
2021/01/12 08:24:19;;;;;;;4.17;3.03;;;6.70;99.90;;;;;;4986205;28;20164;-82
2021/01/12 08:26:46;;;;;;;4.50;3.50;;;6.70;99.90;;;;;;4986120;28;20165;-80
2021/01/12 08:29:13;;;;;;;5.13;3.53;;;6.70;99.90;;;;;;4968147;28;20192;-80
2021/01/12 08:31:47;;;;;;;4.53;3.53;;;6.70;99.90;;;;;;5004935;28;20202;-80
2021/01/12 08:34:16;;;;;;;4.47;3.73;;;6.70;99.90;;;;;;4990697;28;20191;-80
2021/01/12 08:36:43;;;;;;;8.50;5.17;;;6.70;99.90;;;;;;4983708;28;20577;-81
2021/01/12 08:39:12;;;;;;;7.67;5.10;;;6.70;99.90;;;;;;4990918;28;20172;-80
2021/01/12 08:41:45;;;;;;;6.73;4.90;;;6.70;99.90;;;;;;5006834;28;20227;-81
2021/01/12 08:44:12;;;;;;;8.53;5.60;;;6.70;99.90;;;;;;5002941;28;20180;-80
2021/01/12 08:46:39;;;;;;;6.90;4.63;;;6.60;99.90;;;;;;5004046;28;20195;-80
2021/01/12 08:49:06;;;;;;;6.50;4.90;;;6.70;99.90;;;;;;5006182;28;20199;-81
2021/01/12 08:51:34;;;;;;;6.73;5.07;;;6.70;99.90;;;;;;4986706;28;20297;-80
2021/01/12 08:54:01;;;;;;;8.10;6.00;;;6.80;99.90;;;;;;4971037;28;20184;-81
2021/01/12 08:56:28;;;;;;;10.53;7.23;;;6.80;99.90;;;;;;5005697;28;20291;-81
2021/01/12 08:59:08;;;;;;;9.73;7.17;;;6.80;99.90;;;;;;4991009;28;20184;-80
2021/01/12 09:01:37;;;;;;;9.40;6.27;;;6.80;99.90;;;;;;4987190;28;20203;-80
2021/01/12 09:04:04;;;;;;;7.67;6.00;;;6.80;99.90;;;;;;5004933;28;20268;-81
2021/01/12 09:06:31;;;;;;;6.87;5.30;;;6.80;99.90;;;;;;5005518;28;20290;-81
2021/01/12 09:09:11;;;;;;;6.10;4.83;;;6.80;99.90;;;;;;4976070;28;20296;-81
2021/01/12 09:11:39;;;;;;;8.13;5.47;;;6.90;99.90;;;;;;5004508;28;20200;-80
2021/01/12 09:14:06;;;;;;;7.93;5.30;;;6.90;99.90;;;;;;5003230;28;20177;-80
2021/01/12 09:16:33;;;;;;;7.63;4.67;;;6.90;99.90;;;;;;4990010;28;20235;-81
2021/01/12 09:19:00;;;;;;;6.07;4.73;;;7.00;99.90;;;;;;4997267;28;20184;-80
2021/01/12 09:21:26;;;;;;;6.50;4.80;;;7.10;99.90;;;;;;4987041;28;20172;-80
2021/01/12 09:23:52;;;;;;;7.60;4.77;;;7.10;99.90;;;;;;4983362;28;20182;-80
2021/01/12 09:26:21;;;;;;;5.43;4.50;;;7.10;99.90;;;;;;5007392;28;20241;-81
2021/01/12 09:28:50;;;;;;;6.40;4.90;;;7.10;99.90;;;;;;4994370;28;20174;-81
2021/01/12 09:31:21;;;;;;;6.77;5.13;;;7.20;99.90;;;;;;4989464;28;20175;-81
2021/01/12 09:33:54;;;;;;;7.67;5.43;;;7.00;99.90;;;;;;4995684;28;20165;-81
2021/01/12 09:36:24;;;;;;;7.37;5.67;;;7.00;99.90;;;;;;5017085;28;20224;-81
2021/01/12 09:38:51;;;;;;;9.47;5.97;;;7.00;99.90;;;;;;5016060;28;20184;-81
2021/01/12 09:41:24;;;;;;;7.87;6.23;;;7.10;99.90;;;;;;5006326;28;20260;-80
2021/01/12 09:43:50;;;;;;;10.33;6.30;;;7.10;99.90;;;;;;5004827;28;20180;-81
2021/01/12 09:46:16;;;;;;;8.97;6.27;;;7.20;99.90;;;;;;4993850;28;20587;-81
2021/01/12 09:48:43;;;;;;;4.53;3.97;;;7.10;99.90;;;;;;5001722;28;20192;-80
2021/01/12 09:51:13;;;;;;;5.60;3.83;;;7.10;99.90;;;;;;5018966;28;20200;-81
2021/01/12 09:53:46;;;;;;;4.67;4.17;;;7.10;99.90;;;;;;4996004;28;20559;-80
2021/01/12 09:56:15;;;;;;;3.57;2.90;;;7.10;99.90;;;;;;4995044;28;20217;-82
2021/01/12 09:58:42;;;;;;;3.97;3.33;;;7.10;99.90;;;;;;5008495;28;20167;-82
2021/01/12 10:01:09;;;;;;;7.83;4.87;;;7.00;99.90;;;;;;4998688;28;20180;-81
2021/01/12 10:03:39;;;;;;;3.60;2.90;;;7.00;99.90;;;;;;5019557;28;20235;-81
2021/01/12 10:06:05;;;;;;;4.00;2.43;;;7.00;99.90;;;;;;5018701;28;20177;-81
2021/01/12 10:08:35;;;;;;;2.27;1.30;;;6.90;99.90;;;;;;5008045;28;20550;-80
2021/01/12 10:11:02;;;;;;;4.63;1.93;;;6.50;99.90;;;;;;4989822;28;20181;-80
2021/01/12 10:13:28;;;;;;;2.97;1.90;;;6.20;99.90;;;;;;4994604;28;20256;-81
2021/01/12 10:15:54;;;;;;;5.83;2.40;;;6.10;99.90;;;;;;4994689;28;20224;-80
2021/01/12 10:18:20;;;;;;;5.50;2.50;;;6.00;99.90;;;;;;4999241;28;20237;-81
2021/01/12 10:20:47;;;;;;;3.33;2.30;;;6.00;99.90;;;;;;4999548;28;20192;-80
2021/01/12 10:23:13;;;;;;;4.67;2.70;;;6.10;99.90;;;;;;5002412;28;20201;-81
2021/01/12 10:25:39;;;;;;;5.00;2.90;;;6.00;99.90;;;;;;5008442;28;20195;-81
2021/01/12 10:28:05;;;;;;;5.43;3.07;;;6.00;99.90;;;;;;4987322;28;20177;-82
2021/01/12 10:30:32;;;;;;;8.67;5.13;;;6.00;99.90;;;;;;5031785;28;20205;-81
2021/01/12 10:32:59;;;;;;;5.27;2.90;;;6.00;99.90;;;;;;4981922;28;20230;-81
2021/01/12 10:35:26;;;;;;;5.03;2.63;;;6.00;99.90;;;;;;4999769;28;20217;-81
2021/01/12 10:37:52;;;;;;;5.30;3.07;;;6.00;99.90;;;;;;4983002;28;20171;-81
2021/01/12 10:40:21;;;;;;;3.37;2.63;;;6.00;99.90;;;;;;4997703;28;20188;-81
2021/01/12 10:42:48;;;;;;;4.67;2.70;;;6.00;99.90;;;;;;4983057;28;20201;-81
2021/01/12 10:45:14;;;;;;;5.53;2.93;;;6.00;99.90;;;;;;4982876;28;20220;-82
2021/01/12 10:47:44;;;;;;;6.47;2.90;;;6.10;99.90;;;;;;4966821;28;20252;-81
2021/01/12 10:50:17;;;;;;;6.50;3.10;;;6.10;99.90;;;;;;4999168;28;20241;-81
2021/01/12 10:52:45;;;;;;;5.83;3.50;;;6.00;99.90;;;;;;4998728;28;20208;-81
2021/01/12 10:55:12;;;;;;;5.77;3.10;;;6.00;99.90;;;;;;4999101;28;20208;-81
2021/01/12 10:57:39;;;;;;;5.67;3.40;;;6.10;99.90;;;;;;4967031;28;20188;-81
2021/01/12 11:00:09;;;;;;;6.57;3.93;;;6.10;99.90;;;;;;4998331;28;20179;-81
2021/01/12 11:02:35;;;;;;;5.07;3.40;;;6.00;99.90;;;;;;4980921;28;20672;-81
2021/01/12 11:05:02;;;;;;;6.37;3.33;;;6.20;99.90;;;;;;4997742;28;20181;-81
2021/01/12 11:07:31;;;;;;;6.07;3.30;;;6.20;99.90;;;;;;4997223;28;20177;-81
2021/01/12 11:09:59;;;;;;;5.10;3.30;;;6.40;99.90;;;;;;4982335;28;20157;-81
2021/01/12 11:12:26;;;;;;;6.30;3.53;;;6.40;99.90;;;;;;4999126;28;20204;-81
2021/01/12 11:14:55;;;;;;;5.77;3.33;;;6.40;99.90;;;;;;4982555;28;20240;-81
2021/01/12 11:17:25;;;;;;;6.60;3.20;;;6.40;99.90;;;;;;4982570;28;20248;-82
2021/01/12 11:19:52;;;;;;;6.63;3.30;;;6.50;99.90;;;;;;4982897;28;20185;-81
2021/01/12 11:22:26;;;;;;;3.67;3.03;;;6.60;99.90;;;;;;4982174;28;20191;-81
2021/01/12 11:25:00;;;;;;;6.43;3.20;;;6.60;99.90;;;;;;4983313;28;20185;-81
2021/01/12 11:27:27;;;;;;;4.80;2.97;;;6.50;99.90;;;;;;4982183;28;20256;-82
2021/01/12 11:29:54;;;;;;;5.43;3.07;;;6.60;99.90;;;;;;4966542;28;20236;-81
2021/01/12 11:32:21;;;;;;;6.73;2.80;;;6.60;99.90;;;;;;4966649;28;20205;-81
2021/01/12 11:34:48;;;;;;;3.60;2.60;;;6.60;99.90;;;;;;4982756;28;20201;-81
2021/01/12 11:37:16;;;;;;;4.67;2.90;;;6.70;99.90;;;;;;4981466;28;20179;-81
2021/01/12 11:39:42;;;;;;;6.87;2.53;;;6.60;99.90;;;;;;4980309;28;20173;-81
2021/01/12 11:42:12;;;;;;;5.43;2.80;;;6.60;99.90;;;;;;4989987;28;20197;-81
2021/01/12 11:44:39;;;;;;;4.50;3.20;;;6.60;99.90;;;;;;4966034;28;20725;-81
2021/01/12 11:47:06;;;;;;;6.57;3.00;;;6.40;99.90;;;;;;4993147;28;20192;-79
2021/01/12 11:49:32;;;;;;;6.40;2.23;;;6.40;99.90;;;;;;4979053;28;20653;-80
2021/01/12 11:51:59;;;;;;;4.27;2.60;;;6.20;99.90;;;;;;4974708;28;20192;-80
2021/01/12 11:54:26;;;;;;;3.23;2.20;;;6.10;99.90;;;;;;4991218;28;20207;-80
2021/01/12 11:56:55;;;;;;;3.27;1.63;;;6.00;99.90;;;;;;4979167;28;20242;-80
2021/01/12 11:59:25;;;;;;;4.27;2.03;;;5.90;99.90;;;;;;5000339;28;20184;-80
2021/01/12 12:01:54;;;;;;;3.37;2.17;;;5.80;99.90;;;;;;5000407;28;20204;-81
2021/01/12 12:04:25;;;;;;;3.97;2.30;;;5.70;99.90;;;;;;4982907;28;20164;-81
2021/01/12 12:06:52;;;;;;;5.10;3.03;;;5.70;99.90;;;;;;4985818;28;20229;-77
2021/01/12 12:09:17;;;;;;;3.57;2.30;;;5.60;99.90;;;;;;4984757;28;20183;-79
2021/01/12 12:11:43;;;;;;;5.60;2.80;;;5.50;99.90;;;;;;4965277;28;20196;-79
2021/01/12 12:14:09;;;;;;;8.67;2.50;;;5.50;99.90;;;;;;4979974;28;20230;-79
2021/01/12 12:16:35;;;;;;;6.27;2.70;;;5.50;99.90;;;;;;4982411;28;20607;-80
2021/01/12 12:19:01;;;;;;;5.27;2.40;;;5.40;99.90;;;;;;4981425;28;20176;-79
2021/01/12 12:21:27;;;;;;;6.00;2.70;;;5.40;99.90;;;;;;4963572;28;20180;-80
2021/01/12 12:23:53;;;;;;;5.10;2.90;;;5.50;99.90;;;;;;4986396;28;20255;-80
2021/01/12 12:26:19;;;;;;;7.07;2.80;;;5.50;99.90;;;;;;4984259;28;20181;-79
2021/01/12 12:28:48;;;;;;;6.00;2.73;;;5.50;99.90;;;;;;4979998;28;20239;-79
2021/01/12 12:31:15;;;;;;;4.40;2.53;;;5.50;99.90;;;;;;4977262;28;20230;-80
2021/01/12 12:33:42;;;;;;;5.03;2.50;;;5.50;99.90;;;;;;5000639;28;20191;-82
2021/01/12 12:36:09;;;;;;;5.47;2.30;;;5.50;99.90;;;;;;4998309;28;20283;-81
2021/01/12 12:38:38;;;;;;;3.30;1.60;;;5.40;99.90;;;;;;5000082;28;20176;-81
2021/01/12 12:41:11;;;;;;;2.97;1.60;;;5.40;99.90;;;;;;4987056;28;20172;-81
2021/01/12 12:43:38;;;;;;;2.77;1.60;;;5.20;99.90;;;;;;4999139;28;20192;-81
2021/01/12 12:46:04;;;;;;;2.07;1.43;;;5.00;99.90;;;;;;5014975;28;20177;-82
2021/01/12 12:48:32;;;;;;;2.70;1.10;;;5.00;99.90;;;;;;5015265;28;20192;-81
2021/01/12 12:50:59;;;;;;;3.13;1.20;;;5.00;99.90;;;;;;4999024;28;20312;-81
2021/01/12 12:53:26;;;;;;;2.37;1.00;;;4.90;99.90;;;;;;4995548;28;20205;-81
2021/01/12 12:55:53;;;;;;;2.40;1.30;;;4.90;99.90;;;;;;4989410;28;20201;-81
2021/01/12 12:58:20;;;;;;;2.90;0.97;;;4.90;99.90;;;;;;5006913;28;20564;-80
2021/01/12 13:00:46;;;;;;;6.53;1.90;;;5.00;99.90;;;;;;5010756;28;20179;-81
2021/01/12 13:03:12;;;;;;;5.07;1.20;;;4.90;99.90;;;;;;5011042;28;20215;-81
2021/01/12 13:05:39;;;;;;;4.97;1.30;;;5.00;99.90;;;;;;5013013;28;20171;-80